createdAt,value
2018-04-18T08:07:44.573Z,14.13
2018-04-18T08:10:10.941Z,16.08
2018-04-18T08:12:37.360Z,17.35
2018-04-18T08:15:04.521Z,17.62
2018-04-18T08:17:30.888Z,18.00
2018-04-18T08:19:57.276Z,18.08
2018-04-18T08:22:24.411Z,18.27
2018-04-18T08:24:50.844Z,18.60
2018-04-18T08:27:17.949Z,18.23
2018-04-18T08:29:44.328Z,18.50
2018-04-18T08:32:10.692Z,19.00
2018-04-18T08:34:37.078Z,17.85
2018-04-18T08:37:03.439Z,18.83
2018-04-18T08:39:30.593Z,17.60
2018-04-18T08:41:57.698Z,16.80
2018-04-18T08:44:24.060Z,16.90
2018-04-18T08:46:51.204Z,16.47
2018-04-18T08:49:17.623Z,16.23
2018-04-18T08:51:43.989Z,18.20
2018-04-18T08:54:11.117Z,16.80
2018-04-18T08:56:37.516Z,17.37
2018-04-18T08:59:03.909Z,17.53
2018-04-18T09:01:31.016Z,18.30
2018-04-18T09:03:57.417Z,17.27
2018-04-18T09:06:23.788Z,18.10
2018-04-18T09:08:50.172Z,19.10
2018-04-18T09:11:17.271Z,19.10
2018-04-18T09:13:43.651Z,18.60
2018-04-18T09:16:10.743Z,17.90
2018-04-18T09:18:37.128Z,18.40
2018-04-18T09:21:04.255Z,16.57
2018-04-18T09:23:30.608Z,18.73
2018-04-18T09:25:57.736Z,16.30
2018-04-18T09:28:24.095Z,18.10
2018-04-18T09:30:51.216Z,18.33
2018-04-18T09:33:17.586Z,16.50
2018-04-18T09:35:44.703Z,16.10
2018-04-18T09:38:11.129Z,16.33
2018-04-18T09:40:37.489Z,15.23
2018-04-18T09:43:03.869Z,15.57
2018-04-18T09:45:30.232Z,14.60
2018-04-18T09:47:56.659Z,13.93
2018-04-18T09:50:23.031Z,15.10
2018-04-18T09:52:49.415Z,15.23
2018-04-18T09:55:15.769Z,14.17
2018-04-18T09:57:42.163Z,15.30
2018-04-18T10:00:08.543Z,15.40
2018-04-18T10:02:36.804Z,13.60
2018-04-18T10:05:07.116Z,14.07
2018-04-18T10:07:33.515Z,14.37
2018-04-18T10:10:00.648Z,13.97
2018-04-18T10:12:27.786Z,11.70
2018-04-18T10:14:54.891Z,10.80
2018-04-18T10:17:21.286Z,10.93
2018-04-18T10:19:48.440Z,8.47
2018-04-18T10:22:15.548Z,10.53
2018-04-18T10:24:41.937Z,11.80
2018-04-18T10:27:09.036Z,16.10
2018-04-18T10:29:35.424Z,12.20
2018-04-18T10:32:02.585Z,10.70
2018-04-18T10:34:28.954Z,10.73
2018-04-18T10:36:55.380Z,10.27
2018-04-18T10:39:21.770Z,10.00
2018-04-18T10:41:55.799Z,9.57
2018-04-18T10:44:22.172Z,10.60
2018-04-18T10:46:48.563Z,9.40
2018-04-18T10:49:14.963Z,8.77
2018-04-18T10:51:42.116Z,8.10
2018-04-18T10:54:09.267Z,11.13
2018-04-18T10:56:36.380Z,9.60
2018-04-18T10:59:02.768Z,10.03
2018-04-18T11:01:29.901Z,9.90
2018-04-18T11:03:57.012Z,9.70
2018-04-18T11:06:23.398Z,11.50
2018-04-18T11:08:50.496Z,9.30
2018-04-18T11:11:16.895Z,9.90
2018-04-18T11:13:44.016Z,10.13
2018-04-18T11:16:11.112Z,9.90
2018-04-18T11:18:37.543Z,8.87
2018-04-18T11:21:04.640Z,9.13
2018-04-18T11:23:30.997Z,9.57
2018-04-18T11:25:57.387Z,8.77
2018-04-18T11:28:23.741Z,8.80
2018-04-18T11:30:50.124Z,6.50
2018-04-18T11:33:16.537Z,8.93
2018-04-18T11:35:43.648Z,7.00
2018-04-18T11:38:10.023Z,7.40
2018-04-18T11:40:37.155Z,6.73
2018-04-18T11:43:04.283Z,6.97
2018-04-18T11:45:30.676Z,5.87
2018-04-18T11:47:57.048Z,6.37
2018-04-18T11:50:23.429Z,6.47
2018-04-18T11:52:50.536Z,6.93
2018-04-18T11:55:16.943Z,9.53
2018-04-18T11:57:43.330Z,10.43
2018-04-18T12:00:10.437Z,9.27
2018-04-18T12:02:36.828Z,10.23
2018-04-18T12:05:03.934Z,9.33
2018-04-18T12:07:30.318Z,10.13
2018-04-18T12:09:57.436Z,8.90
2018-04-18T12:12:23.799Z,8.30
2018-04-18T12:14:50.919Z,9.33
2018-04-18T12:17:17.285Z,10.33
2018-04-18T12:19:44.428Z,10.33
2018-04-18T12:22:10.885Z,9.00
2018-04-18T12:24:37.241Z,8.87
2018-04-18T12:27:03.648Z,9.70
2018-04-18T12:29:30.777Z,9.20
2018-04-18T12:31:57.168Z,8.40
2018-04-18T12:34:23.529Z,6.97
2018-04-18T12:36:49.909Z,6.63
2018-04-18T12:39:16.297Z,8.60
2018-04-18T12:41:43.396Z,7.00
2018-04-18T12:44:09.780Z,8.80
2018-04-18T12:46:36.143Z,9.60
2018-04-18T12:49:03.314Z,10.63
2018-04-18T12:51:29.673Z,10.90
2018-04-18T12:53:56.074Z,10.60
2018-04-18T12:56:22.456Z,10.90
2018-04-18T12:58:48.845Z,12.00
2018-04-18T13:01:15.232Z,7.93
2018-04-18T13:03:42.339Z,8.30
2018-04-18T13:06:08.731Z,10.33
2018-04-18T13:08:35.092Z,9.57
2018-04-18T13:11:01.483Z,9.50
2018-04-18T13:13:27.850Z,9.13
2018-04-18T13:15:54.972Z,11.30
2018-04-18T13:18:22.171Z,12.83
2018-04-18T13:20:48.522Z,12.47
2018-04-18T13:23:14.929Z,12.63
2018-04-18T13:25:41.308Z,13.60
2018-04-18T13:28:07.694Z,11.47
2018-04-18T13:30:34.824Z,13.00
2018-04-18T18:01:34.547Z,13.67
2018-04-18T18:04:00.976Z,13.43
2018-04-18T18:06:27.367Z,13.53
2018-04-18T18:11:21.471Z,15.43
2018-04-18T18:13:47.846Z,16.75
2018-04-18T18:16:14.255Z,16.02
2018-04-18T18:18:41.389Z,15.52
2018-04-18T18:21:07.812Z,15.45
2018-04-18T18:23:34.211Z,15.60
2018-04-18T18:26:00.623Z,16.00
2018-04-18T18:28:27.016Z,15.68
2018-04-18T18:30:53.392Z,16.10
2018-04-18T18:33:19.841Z,16.40
2018-04-18T18:35:46.241Z,15.98
2018-04-18T18:38:13.372Z,17.02
2018-04-18T18:40:39.744Z,18.20
2018-04-18T18:43:06.123Z,16.80
2018-04-18T18:45:32.501Z,17.00
2018-04-18T18:47:59.666Z,16.55
2018-04-18T18:50:26.047Z,15.38
2018-04-18T18:52:52.437Z,15.98
2018-04-18T18:55:18.853Z,17.27
2018-04-18T18:57:45.988Z,17.73
2018-04-18T19:00:12.382Z,18.42
2018-04-18T19:02:38.763Z,17.35
2018-04-18T19:05:05.907Z,19.20
2018-04-18T19:07:32.341Z,18.33
2018-04-18T19:09:58.747Z,18.75
2018-04-18T19:12:25.156Z,18.15
2018-04-18T19:14:51.563Z,18.13
2018-04-18T19:17:18.559Z,17.67
2018-04-18T19:19:45.298Z,18.87
2018-04-18T19:22:11.695Z,17.75
2018-04-18T19:24:38.075Z,18.10
2018-04-18T19:27:04.496Z,17.98
2018-04-18T19:29:30.877Z,18.30
2018-04-18T19:31:58.274Z,18.20
2018-04-18T19:34:24.854Z,18.33
2018-04-18T19:36:52.019Z,17.42
2018-04-18T19:39:19.213Z,17.20
2018-04-18T19:41:45.671Z,17.17
2018-04-18T19:44:12.096Z,18.00
2018-04-18T19:46:38.519Z,18.45
2018-04-18T19:49:04.993Z,19.12
2018-04-18T19:51:32.100Z,18.05
2018-04-18T19:53:58.549Z,18.73
2018-04-18T19:56:25.010Z,18.15
2018-04-18T19:58:51.425Z,19.35
2018-04-18T20:01:17.788Z,18.87
2018-04-18T20:03:44.924Z,18.65
2018-04-18T20:08:37.515Z,15.00
